sensor_id;sensor_type;location;lat;lon;timestamp;P1;durP1;ratioP1;P2;durP2;ratioP2
21239;SDS011;10778;48.962;9.018;2024-01-30T00:02:14;13.85;;;8.65;;
21239;SDS011;10778;48.962;9.018;2024-01-30T00:04:40;13.45;;;8.43;;
21239;SDS011;10778;48.962;9.018;2024-01-30T00:07:06;11.82;;;8.50;;
21239;SDS011;10778;48.962;9.018;2024-01-30T00:09:32;14.45;;;8.90;;
21239;SDS011;10778;48.962;9.018;2024-01-30T00:11:58;13.70;;;8.77;;
21239;SDS011;10778;48.962;9.018;2024-01-30T00:14:24;15.98;;;8.82;;
21239;SDS011;10778;48.962;9.018;2024-01-30T00:16:50;15.57;;;8.73;;
21239;SDS011;10778;48.962;9.018;2024-01-30T00:19:17;17.25;;;8.65;;
21239;SDS011;10778;48.962;9.018;2024-01-30T00:21:43;19.52;;;8.73;;
21239;SDS011;10778;48.962;9.018;2024-01-30T00:24:09;17.60;;;8.90;;
21239;SDS011;10778;48.962;9.018;2024-01-30T00:26:35;15.10;;;9.15;;
21239;SDS011;10778;48.962;9.018;2024-01-30T00:29:01;14.93;;;9.15;;
21239;SDS011;10778;48.962;9.018;2024-01-30T00:31:27;13.80;;;8.65;;
21239;SDS011;10778;48.962;9.018;2024-01-30T00:33:53;12.38;;;7.88;;
21239;SDS011;10778;48.962;9.018;2024-01-30T00:36:19;12.30;;;8.18;;
21239;SDS011;10778;48.962;9.018;2024-01-30T00:38:45;12.50;;;8.00;;
21239;SDS011;10778;48.962;9.018;2024-01-30T00:41:11;13.55;;;8.00;;
21239;SDS011;10778;48.962;9.018;2024-01-30T00:43:37;15.75;;;7.97;;
21239;SDS011;10778;48.962;9.018;2024-01-30T00:46:03;14.07;;;7.53;;
21239;SDS011;10778;48.962;9.018;2024-01-30T00:48:30;10.85;;;7.32;;
21239;SDS011;10778;48.962;9.018;2024-01-30T00:50:56;12.60;;;8.02;;
21239;SDS011;10778;48.962;9.018;2024-01-30T00:53:22;12.18;;;7.85;;
21239;SDS011;10778;48.962;9.018;2024-01-30T00:55:48;12.13;;;7.40;;
21239;SDS011;10778;48.962;9.018;2024-01-30T00:58:14;13.70;;;8.13;;
21239;SDS011;10778;48.962;9.018;2024-01-30T01:00:40;14.65;;;8.07;;
21239;SDS011;10778;48.962;9.018;2024-01-30T01:03:06;12.43;;;7.53;;
21239;SDS011;10778;48.962;9.018;2024-01-30T01:05:32;13.00;;;7.70;;
21239;SDS011;10778;48.962;9.018;2024-01-30T01:07:58;13.50;;;8.02;;
21239;SDS011;10778;48.962;9.018;2024-01-30T01:10:24;13.52;;;8.60;;
21239;SDS011;10778;48.962;9.018;2024-01-30T01:12:50;14.07;;;8.25;;
21239;SDS011;10778;48.962;9.018;2024-01-30T01:15:16;13.18;;;8.50;;
21239;SDS011;10778;48.962;9.018;2024-01-30T01:17:42;12.55;;;8.18;;
21239;SDS011;10778;48.962;9.018;2024-01-30T01:20:08;13.05;;;8.60;;
21239;SDS011;10778;48.962;9.018;2024-01-30T01:22:34;11.68;;;7.70;;
21239;SDS011;10778;48.962;9.018;2024-01-30T01:25:00;14.35;;;8.23;;
21239;SDS011;10778;48.962;9.018;2024-01-30T01:27:26;12.65;;;7.90;;
21239;SDS011;10778;48.962;9.018;2024-01-30T01:29:53;11.25;;;7.65;;
21239;SDS011;10778;48.962;9.018;2024-01-30T01:32:19;13.07;;;7.75;;
21239;SDS011;10778;48.962;9.018;2024-01-30T01:34:45;11.48;;;8.00;;
21239;SDS011;10778;48.962;9.018;2024-01-30T01:37:11;12.13;;;7.65;;
21239;SDS011;10778;48.962;9.018;2024-01-30T01:39:37;13.63;;;8.98;;
21239;SDS011;10778;48.962;9.018;2024-01-30T01:42:03;11.55;;;7.90;;
21239;SDS011;10778;48.962;9.018;2024-01-30T01:44:29;11.30;;;7.57;;
21239;SDS011;10778;48.962;9.018;2024-01-30T01:46:55;12.02;;;8.02;;
21239;SDS011;10778;48.962;9.018;2024-01-30T01:49:25;12.43;;;7.80;;
21239;SDS011;10778;48.962;9.018;2024-01-30T01:51:55;11.43;;;7.25;;
21239;SDS011;10778;48.962;9.018;2024-01-30T01:54:25;11.93;;;7.78;;
21239;SDS011;10778;48.962;9.018;2024-01-30T01:56:54;12.25;;;8.05;;
21239;SDS011;10778;48.962;9.018;2024-01-30T01:59:20;13.45;;;8.32;;
21239;SDS011;10778;48.962;9.018;2024-01-30T02:01:47;13.38;;;7.90;;
21239;SDS011;10778;48.962;9.018;2024-01-30T02:04:16;13.13;;;8.00;;
21239;SDS011;10778;48.962;9.018;2024-01-30T02:06:43;12.63;;;8.18;;
21239;SDS011;10778;48.962;9.018;2024-01-30T02:09:09;12.75;;;7.65;;
21239;SDS011;10778;48.962;9.018;2024-01-30T02:11:35;12.88;;;8.20;;
21239;SDS011;10778;48.962;9.018;2024-01-30T02:14:05;12.82;;;7.95;;
21239;SDS011;10778;48.962;9.018;2024-01-30T02:16:31;10.73;;;7.50;;
21239;SDS011;10778;48.962;9.018;2024-01-30T02:18:58;13.60;;;7.47;;
21239;SDS011;10778;48.962;9.018;2024-01-30T02:21:24;10.50;;;7.60;;
21239;SDS011;10778;48.962;9.018;2024-01-30T02:23:50;11.32;;;7.45;;
21239;SDS011;10778;48.962;9.018;2024-01-30T02:26:16;11.43;;;7.72;;
21239;SDS011;10778;48.962;9.018;2024-01-30T02:28:42;13.82;;;7.80;;
21239;SDS011;10778;48.962;9.018;2024-01-30T02:31:08;13.07;;;8.00;;
21239;SDS011;10778;48.962;9.018;2024-01-30T02:33:34;12.48;;;7.85;;
21239;SDS011;10778;48.962;9.018;2024-01-30T02:36:00;13.38;;;8.05;;
21239;SDS011;10778;48.962;9.018;2024-01-30T02:38:26;13.07;;;8.20;;
21239;SDS011;10778;48.962;9.018;2024-01-30T02:40:52;14.00;;;8.10;;
21239;SDS011;10778;48.962;9.018;2024-01-30T02:43:19;12.48;;;7.80;;
21239;SDS011;10778;48.962;9.018;2024-01-30T02:45:45;12.70;;;7.65;;
21239;SDS011;10778;48.962;9.018;2024-01-30T02:48:11;14.32;;;8.20;;
21239;SDS011;10778;48.962;9.018;2024-01-30T02:50:37;14.85;;;8.10;;
21239;SDS011;10778;48.962;9.018;2024-01-30T02:53:03;12.13;;;8.02;;
21239;SDS011;10778;48.962;9.018;2024-01-30T02:55:29;14.05;;;8.43;;
21239;SDS011;10778;48.962;9.018;2024-01-30T02:57:55;12.25;;;7.35;;
21239;SDS011;10778;48.962;9.018;2024-01-30T03:00:21;12.43;;;8.30;;
21239;SDS011;10778;48.962;9.018;2024-01-30T03:02:47;12.38;;;7.65;;
21239;SDS011;10778;48.962;9.018;2024-01-30T03:05:13;11.80;;;8.15;;
21239;SDS011;10778;48.962;9.018;2024-01-30T03:07:39;10.55;;;7.47;;
21239;SDS011;10778;48.962;9.018;2024-01-30T03:10:05;13.35;;;8.63;;
21239;SDS011;10778;48.962;9.018;2024-01-30T03:12:34;11.50;;;7.78;;
21239;SDS011;10778;48.962;9.018;2024-01-30T03:15:00;14.55;;;7.93;;
21239;SDS011;10778;48.962;9.018;2024-01-30T03:17:26;11.70;;;7.85;;
21239;SDS011;10778;48.962;9.018;2024-01-30T03:19:52;11.15;;;7.70;;
21239;SDS011;10778;48.962;9.018;2024-01-30T03:22:18;11.85;;;8.05;;
21239;SDS011;10778;48.962;9.018;2024-01-30T03:24:44;12.02;;;7.75;;
21239;SDS011;10778;48.962;9.018;2024-01-30T03:27:10;11.27;;;8.15;;
21239;SDS011;10778;48.962;9.018;2024-01-30T03:29:36;13.70;;;8.00;;
21239;SDS011;10778;48.962;9.018;2024-01-30T03:32:02;14.00;;;8.25;;
21239;SDS011;10778;48.962;9.018;2024-01-30T03:34:29;13.50;;;8.48;;
21239;SDS011;10778;48.962;9.018;2024-01-30T03:36:55;13.10;;;8.30;;
21239;SDS011;10778;48.962;9.018;2024-01-30T03:39:21;14.02;;;8.65;;
21239;SDS011;10778;48.962;9.018;2024-01-30T03:41:47;17.50;;;9.07;;
21239;SDS011;10778;48.962;9.018;2024-01-30T03:44:13;14.48;;;8.27;;
21239;SDS011;10778;48.962;9.018;2024-01-30T03:46:39;11.55;;;8.05;;
21239;SDS011;10778;48.962;9.018;2024-01-30T03:49:05;11.57;;;7.70;;
21239;SDS011;10778;48.962;9.018;2024-01-30T03:51:31;10.98;;;7.50;;
21239;SDS011;10778;48.962;9.018;2024-01-30T03:53:57;12.43;;;7.38;;
21239;SDS011;10778;48.962;9.018;2024-01-30T03:56:23;12.60;;;7.55;;
21239;SDS011;10778;48.962;9.018;2024-01-30T03:58:51;11.10;;;7.45;;
21239;SDS011;10778;48.962;9.018;2024-01-30T04:01:17;12.65;;;7.20;;
21239;SDS011;10778;48.962;9.018;2024-01-30T04:03:43;12.25;;;7.90;;
21239;SDS011;10778;48.962;9.018;2024-01-30T04:06:10;11.30;;;7.38;;
21239;SDS011;10778;48.962;9.018;2024-01-30T04:08:36;11.05;;;7.53;;
21239;SDS011;10778;48.962;9.018;2024-01-30T04:11:03;11.88;;;7.50;;
21239;SDS011;10778;48.962;9.018;2024-01-30T04:13:31;13.93;;;7.68;;
21239;SDS011;10778;48.962;9.018;2024-01-30T04:16:01;10.77;;;7.13;;
21239;SDS011;10778;48.962;9.018;2024-01-30T04:18:28;12.80;;;7.88;;
21239;SDS011;10778;48.962;9.018;2024-01-30T04:20:54;12.57;;;7.78;;
21239;SDS011;10778;48.962;9.018;2024-01-30T04:23:21;12.07;;;7.93;;
21239;SDS011;10778;48.962;9.018;2024-01-30T04:25:47;13.55;;;7.97;;
21239;SDS011;10778;48.962;9.018;2024-01-30T04:28:13;12.73;;;7.63;;
21239;SDS011;10778;48.962;9.018;2024-01-30T04:30:39;13.68;;;7.88;;
21239;SDS011;10778;48.962;9.018;2024-01-30T04:33:05;14.00;;;7.30;;
21239;SDS011;10778;48.962;9.018;2024-01-30T04:35:31;12.32;;;7.60;;
21239;SDS011;10778;48.962;9.018;2024-01-30T04:37:57;12.30;;;7.75;;
21239;SDS011;10778;48.962;9.018;2024-01-30T04:40:23;12.23;;;7.80;;
21239;SDS011;10778;48.962;9.018;2024-01-30T04:42:49;11.95;;;7.07;;
21239;SDS011;10778;48.962;9.018;2024-01-30T04:45:15;13.07;;;7.57;;
21239;SDS011;10778;48.962;9.018;2024-01-30T04:47:41;12.55;;;7.15;;
21239;SDS011;10778;48.962;9.018;2024-01-30T04:50:08;10.65;;;7.20;;
21239;SDS011;10778;48.962;9.018;2024-01-30T04:52:34;10.68;;;7.22;;
21239;SDS011;10778;48.962;9.018;2024-01-30T04:55:01;11.18;;;7.32;;
21239;SDS011;10778;48.962;9.018;2024-01-30T04:57:27;12.95;;;7.38;;
21239;SDS011;10778;48.962;9.018;2024-01-30T04:59:53;13.90;;;7.32;;
21239;SDS011;10778;48.962;9.018;2024-01-30T05:02:19;13.05;;;7.70;;
21239;SDS011;10778;48.962;9.018;2024-01-30T05:04:45;12.13;;;7.47;;
21239;SDS011;10778;48.962;9.018;2024-01-30T05:07:11;12.77;;;7.25;;
21239;SDS011;10778;48.962;9.018;2024-01-30T05:09:37;15.02;;;7.88;;
21239;SDS011;10778;48.962;9.018;2024-01-30T05:12:03;17.05;;;9.23;;
21239;SDS011;10778;48.962;9.018;2024-01-30T05:14:30;15.65;;;8.93;;
21239;SDS011;10778;48.962;9.018;2024-01-30T05:16:55;21.55;;;11.48;;
21239;SDS011;10778;48.962;9.018;2024-01-30T05:19:21;15.25;;;8.75;;
21239;SDS011;10778;48.962;9.018;2024-01-30T05:21:49;14.98;;;8.57;;
21239;SDS011;10778;48.962;9.018;2024-01-30T05:24:15;18.83;;;8.77;;
21239;SDS011;10778;48.962;9.018;2024-01-30T05:26:41;15.98;;;9.57;;
21239;SDS011;10778;48.962;9.018;2024-01-30T05:29:07;12.77;;;8.75;;
21239;SDS011;10778;48.962;9.018;2024-01-30T05:31:33;17.35;;;9.48;;
21239;SDS011;10778;48.962;9.018;2024-01-30T05:34:00;14.30;;;8.73;;
21239;SDS011;10778;48.962;9.018;2024-01-30T05:36:26;15.00;;;9.05;;
21239;SDS011;10778;48.962;9.018;2024-01-30T05:38:52;16.55;;;9.05;;
21239;SDS011;10778;48.962;9.018;2024-01-30T05:41:18;15.27;;;8.77;;
21239;SDS011;10778;48.962;9.018;2024-01-30T05:43:44;14.10;;;9.25;;
21239;SDS011;10778;48.962;9.018;2024-01-30T05:46:10;15.00;;;9.10;;
21239;SDS011;10778;48.962;9.018;2024-01-30T05:48:36;15.90;;;9.00;;
21239;SDS011;10778;48.962;9.018;2024-01-30T05:51:02;13.90;;;8.80;;
21239;SDS011;10778;48.962;9.018;2024-01-30T05:53:29;14.10;;;8.48;;
21239;SDS011;10778;48.962;9.018;2024-01-30T05:55:55;14.25;;;9.10;;
21239;SDS011;10778;48.962;9.018;2024-01-30T05:58:21;13.38;;;8.35;;
21239;SDS011;10778;48.962;9.018;2024-01-30T06:00:47;14.55;;;8.40;;
21239;SDS011;10778;48.962;9.018;2024-01-30T06:03:13;14.45;;;8.88;;
21239;SDS011;10778;48.962;9.018;2024-01-30T06:05:39;13.93;;;8.68;;
21239;SDS011;10778;48.962;9.018;2024-01-30T06:08:05;14.15;;;9.02;;
21239;SDS011;10778;48.962;9.018;2024-01-30T06:10:31;11.73;;;8.13;;
21239;SDS011;10778;48.962;9.018;2024-01-30T06:12:57;12.43;;;7.93;;
21239;SDS011;10778;48.962;9.018;2024-01-30T06:15:23;13.57;;;7.97;;
21239;SDS011;10778;48.962;9.018;2024-01-30T06:17:49;12.55;;;8.07;;
21239;SDS011;10778;48.962;9.018;2024-01-30T06:20:15;15.60;;;8.07;;
21239;SDS011;10778;48.962;9.018;2024-01-30T06:22:41;11.43;;;7.60;;
21239;SDS011;10778;48.962;9.018;2024-01-30T06:25:07;15.18;;;7.72;;
21239;SDS011;10778;48.962;9.018;2024-01-30T06:27:33;15.60;;;8.05;;
21239;SDS011;10778;48.962;9.018;2024-01-30T06:30:00;13.77;;;7.90;;
21239;SDS011;10778;48.962;9.018;2024-01-30T06:32:26;12.85;;;7.40;;
21239;SDS011;10778;48.962;9.018;2024-01-30T06:34:54;11.48;;;7.07;;
21239;SDS011;10778;48.962;9.018;2024-01-30T06:37:20;10.75;;;6.90;;
21239;SDS011;10778;48.962;9.018;2024-01-30T06:39:46;10.82;;;6.80;;
21239;SDS011;10778;48.962;9.018;2024-01-30T06:42:12;12.73;;;7.72;;
21239;SDS011;10778;48.962;9.018;2024-01-30T06:44:38;13.00;;;7.57;;
21239;SDS011;10778;48.962;9.018;2024-01-30T06:47:04;13.50;;;8.48;;
21239;SDS011;10778;48.962;9.018;2024-01-30T06:49:30;13.52;;;9.60;;
21239;SDS011;10778;48.962;9.018;2024-01-30T06:51:56;15.90;;;9.63;;
21239;SDS011;10778;48.962;9.018;2024-01-30T06:54:22;17.40;;;10.35;;
21239;SDS011;10778;48.962;9.018;2024-01-30T06:56:48;17.45;;;11.15;;
21239;SDS011;10778;48.962;9.018;2024-01-30T06:59:14;17.88;;;10.80;;
21239;SDS011;10778;48.962;9.018;2024-01-30T07:01:40;17.30;;;10.90;;
21239;SDS011;10778;48.962;9.018;2024-01-30T07:04:06;17.08;;;10.57;;
21239;SDS011;10778;48.962;9.018;2024-01-30T07:06:31;16.45;;;10.23;;
21239;SDS011;10778;48.962;9.018;2024-01-30T07:08:57;16.90;;;10.70;;
21239;SDS011;10778;48.962;9.018;2024-01-30T07:11:23;15.18;;;9.30;;
21239;SDS011;10778;48.962;9.018;2024-01-30T07:13:50;14.43;;;9.15;;
21239;SDS011;10778;48.962;9.018;2024-01-30T07:16:17;15.38;;;9.70;;
21239;SDS011;10778;48.962;9.018;2024-01-30T07:18:43;15.95;;;10.02;;
21239;SDS011;10778;48.962;9.018;2024-01-30T07:21:09;15.10;;;8.68;;
21239;SDS011;10778;48.962;9.018;2024-01-30T07:23:35;14.30;;;8.35;;
21239;SDS011;10778;48.962;9.018;2024-01-30T07:26:04;12.43;;;7.80;;
21239;SDS011;10778;48.962;9.018;2024-01-30T07:28:32;14.23;;;7.82;;
21239;SDS011;10778;48.962;9.018;2024-01-30T07:30:59;12.80;;;7.28;;
21239;SDS011;10778;48.962;9.018;2024-01-30T07:33:25;10.77;;;7.15;;
21239;SDS011;10778;48.962;9.018;2024-01-30T07:35:52;11.07;;;6.97;;
21239;SDS011;10778;48.962;9.018;2024-01-30T07:38:19;13.80;;;7.70;;
21239;SDS011;10778;48.962;9.018;2024-01-30T07:40:45;30.98;;;13.32;;
21239;SDS011;10778;48.962;9.018;2024-01-30T07:43:11;21.27;;;9.98;;
21239;SDS011;10778;48.962;9.018;2024-01-30T07:45:37;12.85;;;7.30;;
21239;SDS011;10778;48.962;9.018;2024-01-30T07:48:06;13.30;;;7.28;;
21239;SDS011;10778;48.962;9.018;2024-01-30T07:50:32;12.90;;;7.03;;
21239;SDS011;10778;48.962;9.018;2024-01-30T07:52:59;12.00;;;6.53;;
21239;SDS011;10778;48.962;9.018;2024-01-30T07:55:26;11.00;;;6.90;;
21239;SDS011;10778;48.962;9.018;2024-01-30T07:57:54;12.63;;;8.05;;
21239;SDS011;10778;48.962;9.018;2024-01-30T08:00:21;10.68;;;6.97;;
21239;SDS011;10778;48.962;9.018;2024-01-30T08:02:47;12.10;;;7.63;;
21239;SDS011;10778;48.962;9.018;2024-01-30T08:05:14;13.63;;;8.10;;
21239;SDS011;10778;48.962;9.018;2024-01-30T08:07:41;19.83;;;9.73;;
21239;SDS011;10778;48.962;9.018;2024-01-30T08:10:08;19.25;;;10.60;;
21239;SDS011;10778;48.962;9.018;2024-01-30T08:12:34;12.00;;;7.65;;
21239;SDS011;10778;48.962;9.018;2024-01-30T08:15:00;12.40;;;7.90;;
21239;SDS011;10778;48.962;9.018;2024-01-30T08:17:26;10.98;;;7.45;;
21239;SDS011;10778;48.962;9.018;2024-01-30T08:19:52;13.57;;;7.95;;
21239;SDS011;10778;48.962;9.018;2024-01-30T08:22:18;13.13;;;8.40;;
21239;SDS011;10778;48.962;9.018;2024-01-30T08:24:44;14.95;;;8.20;;
21239;SDS011;10778;48.962;9.018;2024-01-30T08:27:10;11.60;;;8.00;;
21239;SDS011;10778;48.962;9.018;2024-01-30T08:29:37;12.00;;;8.25;;
21239;SDS011;10778;48.962;9.018;2024-01-30T08:32:04;11.05;;;7.57;;
21239;SDS011;10778;48.962;9.018;2024-01-30T08:34:31;12.95;;;8.82;;
21239;SDS011;10778;48.962;9.018;2024-01-30T08:36:57;12.57;;;8.88;;
21239;SDS011;10778;48.962;9.018;2024-01-30T08:39:23;13.75;;;8.32;;
21239;SDS011;10778;48.962;9.018;2024-01-30T08:41:50;14.27;;;8.73;;
21239;SDS011;10778;48.962;9.018;2024-01-30T08:44:16;14.13;;;8.57;;
21239;SDS011;10778;48.962;9.018;2024-01-30T08:46:45;13.43;;;8.45;;
21239;SDS011;10778;48.962;9.018;2024-01-30T08:49:12;16.52;;;9.23;;
21239;SDS011;10778;48.962;9.018;2024-01-30T08:51:39;14.40;;;9.50;;
21239;SDS011;10778;48.962;9.018;2024-01-30T08:54:05;15.38;;;9.10;;
21239;SDS011;10778;48.962;9.018;2024-01-30T08:56:31;17.63;;;9.63;;
21239;SDS011;10778;48.962;9.018;2024-01-30T08:58:57;12.48;;;7.75;;
21239;SDS011;10778;48.962;9.018;2024-01-30T09:01:23;13.43;;;8.63;;
21239;SDS011;10778;48.962;9.018;2024-01-30T09:03:50;12.60;;;7.95;;
21239;SDS011;10778;48.962;9.018;2024-01-30T09:06:16;13.45;;;7.88;;
21239;SDS011;10778;48.962;9.018;2024-01-30T09:08:42;10.13;;;7.13;;
21239;SDS011;10778;48.962;9.018;2024-01-30T09:11:09;10.18;;;7.03;;
21239;SDS011;10778;48.962;9.018;2024-01-30T09:13:36;12.70;;;7.45;;
21239;SDS011;10778;48.962;9.018;2024-01-30T09:16:02;12.48;;;7.60;;
21239;SDS011;10778;48.962;9.018;2024-01-30T09:18:29;11.35;;;7.22;;
21239;SDS011;10778;48.962;9.018;2024-01-30T09:20:55;11.98;;;8.10;;
21239;SDS011;10778;48.962;9.018;2024-01-30T09:23:21;11.52;;;7.30;;
21239;SDS011;10778;48.962;9.018;2024-01-30T09:25:47;12.98;;;8.15;;
21239;SDS011;10778;48.962;9.018;2024-01-30T09:28:14;12.20;;;8.52;;
21239;SDS011;10778;48.962;9.018;2024-01-30T09:30:40;13.75;;;8.70;;
21239;SDS011;10778;48.962;9.018;2024-01-30T09:33:06;11.38;;;8.43;;
21239;SDS011;10778;48.962;9.018;2024-01-30T09:35:32;11.88;;;8.38;;
21239;SDS011;10778;48.962;9.018;2024-01-30T09:37:59;15.70;;;10.77;;
21239;SDS011;10778;48.962;9.018;2024-01-30T09:40:25;24.60;;;15.43;;
21239;SDS011;10778;48.962;9.018;2024-01-30T09:42:51;19.63;;;12.85;;
21239;SDS011;10778;48.962;9.018;2024-01-30T09:45:17;14.05;;;9.80;;
21239;SDS011;10778;48.962;9.018;2024-01-30T09:47:45;13.30;;;8.82;;
21239;SDS011;10778;48.962;9.018;2024-01-30T09:50:12;12.90;;;8.73;;
21239;SDS011;10778;48.962;9.018;2024-01-30T09:52:39;13.18;;;8.82;;
21239;SDS011;10778;48.962;9.018;2024-01-30T09:55:06;16.30;;;9.60;;
21239;SDS011;10778;48.962;9.018;2024-01-30T09:57:35;13.15;;;8.93;;
21239;SDS011;10778;48.962;9.018;2024-01-30T10:00:02;14.93;;;8.50;;
21239;SDS011;10778;48.962;9.018;2024-01-30T10:02:38;14.73;;;8.77;;
21239;SDS011;10778;48.962;9.018;2024-01-30T10:05:04;13.82;;;9.35;;
21239;SDS011;10778;48.962;9.018;2024-01-30T10:07:31;11.88;;;8.85;;
21239;SDS011;10778;48.962;9.018;2024-01-30T10:09:57;13.63;;;9.48;;
21239;SDS011;10778;48.962;9.018;2024-01-30T10:12:23;14.20;;;9.18;;
21239;SDS011;10778;48.962;9.018;2024-01-30T10:14:51;15.70;;;9.10;;
21239;SDS011;10778;48.962;9.018;2024-01-30T10:17:18;15.02;;;9.48;;
21239;SDS011;10778;48.962;9.018;2024-01-30T10:19:44;14.05;;;9.48;;
21239;SDS011;10778;48.962;9.018;2024-01-30T10:22:10;15.05;;;9.50;;
21239;SDS011;10778;48.962;9.018;2024-01-30T10:24:37;13.32;;;10.25;;
21239;SDS011;10778;48.962;9.018;2024-01-30T10:27:03;16.67;;;10.95;;
21239;SDS011;10778;48.962;9.018;2024-01-30T10:29:31;13.88;;;10.10;;
21239;SDS011;10778;48.962;9.018;2024-01-30T10:32:06;15.80;;;11.18;;
21239;SDS011;10778;48.962;9.018;2024-01-30T10:34:33;15.85;;;10.20;;
21239;SDS011;10778;48.962;9.018;2024-01-30T10:37:07;14.07;;;10.07;;
21239;SDS011;10778;48.962;9.018;2024-01-30T10:39:38;15.57;;;10.05;;
21239;SDS011;10778;48.962;9.018;2024-01-30T10:42:05;15.57;;;9.80;;
21239;SDS011;10778;48.962;9.018;2024-01-30T10:44:36;15.82;;;10.25;;
21239;SDS011;10778;48.962;9.018;2024-01-30T10:47:12;14.05;;;9.88;;
21239;SDS011;10778;48.962;9.018;2024-01-30T10:49:41;18.42;;;10.82;;
21239;SDS011;10778;48.962;9.018;2024-01-30T10:52:09;14.38;;;10.60;;
21239;SDS011;10778;48.962;9.018;2024-01-30T10:54:36;13.52;;;10.38;;
21239;SDS011;10778;48.962;9.018;2024-01-30T10:57:03;14.00;;;9.63;;
21239;SDS011;10778;48.962;9.018;2024-01-30T10:59:30;17.27;;;10.45;;
21239;SDS011;10778;48.962;9.018;2024-01-30T11:01:57;18.13;;;10.30;;
21239;SDS011;10778;48.962;9.018;2024-01-30T11:04:25;18.73;;;10.77;;
21239;SDS011;10778;48.962;9.018;2024-01-30T11:06:51;16.88;;;10.07;;
21239;SDS011;10778;48.962;9.018;2024-01-30T11:09:17;15.27;;;9.68;;
21239;SDS011;10778;48.962;9.018;2024-01-30T11:11:56;14.25;;;10.07;;
21239;SDS011;10778;48.962;9.018;2024-01-30T11:14:27;15.00;;;10.13;;
21239;SDS011;10778;48.962;9.018;2024-01-30T11:16:58;13.70;;;10.00;;
21239;SDS011;10778;48.962;9.018;2024-01-30T11:19:25;15.93;;;9.98;;
21239;SDS011;10778;48.962;9.018;2024-01-30T11:21:55;15.48;;;9.90;;
21239;SDS011;10778;48.962;9.018;2024-01-30T11:24:23;15.10;;;9.93;;
21239;SDS011;10778;48.962;9.018;2024-01-30T11:26:49;16.25;;;10.85;;
21239;SDS011;10778;48.962;9.018;2024-01-30T11:29:23;16.80;;;11.52;;
21239;SDS011;10778;48.962;9.018;2024-01-30T11:31:54;19.95;;;11.23;;
21239;SDS011;10778;48.962;9.018;2024-01-30T11:34:21;16.92;;;11.52;;
21239;SDS011;10778;48.962;9.018;2024-01-30T11:36:57;16.67;;;10.55;;
21239;SDS011;10778;48.962;9.018;2024-01-30T11:39:31;15.00;;;10.45;;
21239;SDS011;10778;48.962;9.018;2024-01-30T11:41:58;14.35;;;10.27;;
21239;SDS011;10778;48.962;9.018;2024-01-30T11:44:25;16.50;;;10.73;;
21239;SDS011;10778;48.962;9.018;2024-01-30T11:46:52;14.05;;;10.63;;
21239;SDS011;10778;48.962;9.018;2024-01-30T11:49:18;14.20;;;10.40;;
21239;SDS011;10778;48.962;9.018;2024-01-30T11:51:47;16.13;;;10.70;;
21239;SDS011;10778;48.962;9.018;2024-01-30T11:54:18;17.58;;;10.88;;
21239;SDS011;10778;48.962;9.018;2024-01-30T11:56:44;15.43;;;10.70;;
21239;SDS011;10778;48.962;9.018;2024-01-30T11:59:10;16.75;;;11.32;;
21239;SDS011;10778;48.962;9.018;2024-01-30T12:01:36;16.83;;;11.68;;
21239;SDS011;10778;48.962;9.018;2024-01-30T12:04:02;19.10;;;12.82;;
21239;SDS011;10778;48.962;9.018;2024-01-30T12:06:28;19.63;;;12.70;;
21239;SDS011;10778;48.962;9.018;2024-01-30T12:08:56;20.10;;;12.30;;
21239;SDS011;10778;48.962;9.018;2024-01-30T12:11:23;17.77;;;12.45;;
21239;SDS011;10778;48.962;9.018;2024-01-30T12:13:49;19.02;;;12.68;;
21239;SDS011;10778;48.962;9.018;2024-01-30T12:16:16;19.95;;;12.73;;
21239;SDS011;10778;48.962;9.018;2024-01-30T12:18:42;17.92;;;13.20;;
21239;SDS011;10778;48.962;9.018;2024-01-30T12:21:08;21.35;;;13.13;;
21239;SDS011;10778;48.962;9.018;2024-01-30T12:23:34;37.03;;;23.70;;
21239;SDS011;10778;48.962;9.018;2024-01-30T12:26:01;28.73;;;17.40;;
21239;SDS011;10778;48.962;9.018;2024-01-30T12:28:29;23.00;;;15.25;;
21239;SDS011;10778;48.962;9.018;2024-01-30T12:30:55;20.98;;;13.93;;
21239;SDS011;10778;48.962;9.018;2024-01-30T12:33:26;22.02;;;14.25;;
21239;SDS011;10778;48.962;9.018;2024-01-30T12:35:53;21.27;;;13.90;;
21239;SDS011;10778;48.962;9.018;2024-01-30T12:38:19;19.40;;;13.50;;
21239;SDS011;10778;48.962;9.018;2024-01-30T12:40:45;19.42;;;13.10;;
21239;SDS011;10778;48.962;9.018;2024-01-30T12:43:15;19.48;;;12.07;;
21239;SDS011;10778;48.962;9.018;2024-01-30T12:45:41;18.60;;;11.68;;
21239;SDS011;10778;48.962;9.018;2024-01-30T12:48:08;18.58;;;11.93;;
21239;SDS011;10778;48.962;9.018;2024-01-30T12:50:34;16.88;;;11.82;;
21239;SDS011;10778;48.962;9.018;2024-01-30T12:53:00;15.82;;;12.00;;
21239;SDS011;10778;48.962;9.018;2024-01-30T12:55:26;21.48;;;13.77;;
21239;SDS011;10778;48.962;9.018;2024-01-30T12:57:54;20.80;;;13.27;;
21239;SDS011;10778;48.962;9.018;2024-01-30T13:00:21;20.73;;;13.55;;
21239;SDS011;10778;48.962;9.018;2024-01-30T13:02:48;20.58;;;13.88;;
21239;SDS011;10778;48.962;9.018;2024-01-30T13:05:14;17.55;;;12.85;;
21239;SDS011;10778;48.962;9.018;2024-01-30T13:07:40;18.75;;;13.27;;
21239;SDS011;10778;48.962;9.018;2024-01-30T13:10:06;18.45;;;12.70;;
21239;SDS011;10778;48.962;9.018;2024-01-30T13:12:32;16.17;;;12.35;;
21239;SDS011;10778;48.962;9.018;2024-01-30T13:14:59;20.25;;;12.98;;
21239;SDS011;10778;48.962;9.018;2024-01-30T13:17:30;19.15;;;12.40;;
21239;SDS011;10778;48.962;9.018;2024-01-30T13:19:56;21.10;;;12.52;;
21239;SDS011;10778;48.962;9.018;2024-01-30T13:22:22;16.08;;;11.90;;
21239;SDS011;10778;48.962;9.018;2024-01-30T13:24:50;21.73;;;13.57;;
21239;SDS011;10778;48.962;9.018;2024-01-30T13:27:16;18.80;;;13.60;;
21239;SDS011;10778;48.962;9.018;2024-01-30T13:29:43;19.42;;;12.77;;
21239;SDS011;10778;48.962;9.018;2024-01-30T13:32:09;17.42;;;10.70;;
21239;SDS011;10778;48.962;9.018;2024-01-30T13:34:35;15.02;;;10.85;;
21239;SDS011;10778;48.962;9.018;2024-01-30T13:37:01;17.77;;;12.15;;
21239;SDS011;10778;48.962;9.018;2024-01-30T13:39:27;15.93;;;12.20;;
21239;SDS011;10778;48.962;9.018;2024-01-30T13:41:54;19.25;;;12.93;;
21239;SDS011;10778;48.962;9.018;2024-01-30T13:44:20;19.98;;;12.95;;
21239;SDS011;10778;48.962;9.018;2024-01-30T13:46:46;24.92;;;12.98;;
21239;SDS011;10778;48.962;9.018;2024-01-30T13:49:12;21.98;;;12.45;;
21239;SDS011;10778;48.962;9.018;2024-01-30T13:51:38;22.08;;;12.35;;
21239;SDS011;10778;48.962;9.018;2024-01-30T13:54:04;20.80;;;12.43;;
21239;SDS011;10778;48.962;9.018;2024-01-30T13:56:30;19.13;;;12.02;;
21239;SDS011;10778;48.962;9.018;2024-01-30T13:58:56;17.95;;;11.32;;
21239;SDS011;10778;48.962;9.018;2024-01-30T14:01:23;21.55;;;12.75;;
21239;SDS011;10778;48.962;9.018;2024-01-30T14:03:49;21.55;;;12.75;;
21239;SDS011;10778;48.962;9.018;2024-01-30T14:06:15;19.60;;;12.57;;
21239;SDS011;10778;48.962;9.018;2024-01-30T14:08:41;15.77;;;11.68;;
21239;SDS011;10778;48.962;9.018;2024-01-30T14:11:07;19.13;;;11.98;;
21239;SDS011;10778;48.962;9.018;2024-01-30T14:13:33;17.35;;;11.90;;
21239;SDS011;10778;48.962;9.018;2024-01-30T14:16:00;17.40;;;11.73;;
21239;SDS011;10778;48.962;9.018;2024-01-30T14:18:26;18.15;;;11.40;;
21239;SDS011;10778;48.962;9.018;2024-01-30T14:20:52;17.38;;;10.98;;
21239;SDS011;10778;48.962;9.018;2024-01-30T14:23:18;13.27;;;9.55;;
21239;SDS011;10778;48.962;9.018;2024-01-30T14:25:44;14.05;;;9.75;;
21239;SDS011;10778;48.962;9.018;2024-01-30T14:28:10;14.13;;;9.38;;